Time;durP1;ratioP1;P1;durP2;ratioP2;P2;SDS_P1;SDS_P2;PMS_P1;PMS_P2;Temp;Humidity;BMP_temperature;BMP_pressure;BME280_temperature;BME280_humidity;BME280_pressure;Samples;Min_cycle;Max_cycle;Signal;HPM_P1;HPM_P2
2022/08/17 00:01:23;;;;;;;39.88;35.72;;;20.80;86.30;;;;;;5075713;28;20380;-78
2022/08/17 00:03:51;;;;;;;42.10;37.80;;;20.80;86.40;;;;;;5075771;28;20099;-78
2022/08/17 00:06:16;;;;;;;38.90;35.10;;;20.80;86.60;;;;;;5075137;28;20072;-77
2022/08/17 00:08:49;;;;;;;40.88;36.67;;;20.70;86.30;;;;;;5075031;28;20087;-78
2022/08/17 00:11:19;;;;;;;41.22;36.85;;;20.70;86.50;;;;;;5058583;28;20033;-78
2022/08/17 00:13:48;;;;;;;40.90;36.70;;;20.70;86.50;;;;;;5075143;28;20124;-77
2022/08/17 00:16:22;;;;;;;44.17;39.38;;;20.70;86.80;;;;;;5075157;28;20547;-78
2022/08/17 00:18:49;;;;;;;38.20;34.15;;;20.70;86.70;;;;;;5074731;28;20743;-78
2022/08/17 00:21:17;;;;;;;43.03;38.50;;;20.60;86.60;;;;;;5058396;28;20040;-78
2022/08/17 00:23:44;;;;;;;39.70;35.22;;;20.60;86.90;;;;;;5075194;28;20076;-77
2022/08/17 00:26:11;;;;;;;44.45;38.60;;;20.60;86.80;;;;;;5075008;28;20160;-77
2022/08/17 00:28:37;;;;;;;41.92;37.53;;;20.50;86.80;;;;;;5074459;28;20063;-78
2022/08/17 00:31:06;;;;;;;41.47;37.05;;;20.50;86.70;;;;;;5074687;28;20052;-77
2022/08/17 00:33:32;;;;;;;39.28;35.35;;;20.50;86.90;;;;;;5075258;28;20044;-78
2022/08/17 00:35:59;;;;;;;38.67;34.70;;;20.50;86.90;;;;;;5074733;28;20480;-78
2022/08/17 00:38:27;;;;;;;37.85;33.30;;;20.50;86.90;;;;;;5074937;28;20086;-77
2022/08/17 00:41:05;;;;;;;37.15;33.35;;;20.50;86.90;;;;;;5074907;28;20123;-78
2022/08/17 00:43:38;;;;;;;42.30;37.72;;;20.50;87.00;;;;;;5058030;28;20048;-77
2022/08/17 00:46:11;;;;;;;43.60;38.33;;;20.50;87.00;;;;;;5075054;28;20049;-78
2022/08/17 00:48:37;;;;;;;47.20;41.05;;;20.50;87.10;;;;;;5057760;28;20090;-78
2022/08/17 00:51:21;;;;;;;43.78;38.00;;;20.40;87.00;;;;;;5057641;28;20041;-78
2022/08/17 00:53:57;;;;;;;42.22;37.70;;;20.40;87.30;;;;;;5074923;28;20047;-78
2022/08/17 00:56:33;;;;;;;40.17;36.08;;;20.40;87.40;;;;;;5074341;28;20037;-77
2022/08/17 00:59:01;;;;;;;42.80;38.25;;;20.40;87.40;;;;;;5074971;28;20039;-77
2022/08/17 01:01:27;;;;;;;41.88;37.33;;;20.40;87.40;;;;;;5058367;28;20480;-78
2022/08/17 01:03:54;;;;;;;42.70;38.10;;;20.40;87.30;;;;;;5074744;28;20044;-77
2022/08/17 01:06:22;;;;;;;36.10;32.30;;;20.40;87.30;;;;;;5074585;28;20063;-77
2022/08/17 01:08:50;;;;;;;39.33;35.17;;;20.40;87.40;;;;;;5073858;28;20040;-77
2022/08/17 01:11:17;;;;;;;43.95;39.15;;;20.40;87.40;;;;;;5074163;28;20104;-78
2022/08/17 01:13:44;;;;;;;42.08;37.80;;;20.40;87.50;;;;;;5074060;28;20556;-78
2022/08/17 01:16:16;;;;;;;40.92;36.63;;;20.40;87.50;;;;;;5073942;28;20041;-77
2022/08/17 01:18:45;;;;;;;44.50;39.10;;;20.40;87.80;;;;;;5074157;28;20044;-77
2022/08/17 01:21:39;;;;;;;46.92;39.97;;;20.40;87.70;;;;;;5074247;28;20041;-77
2022/08/17 01:24:06;;;;;;;43.72;38.97;;;20.40;87.80;;;;;;5056870;28;20094;-76
2022/08/17 01:26:33;;;;;;;40.97;36.38;;;20.30;87.60;;;;;;5057413;28;20366;-78
2022/08/17 01:29:01;;;;;;;44.90;40.15;;;20.30;87.60;;;;;;5057510;28;20053;-77
2022/08/17 01:31:32;;;;;;;26.58;23.90;;;20.30;87.70;;;;;;5056970;28;20086;-77
2022/08/17 01:34:01;;;;;;;38.78;34.58;;;20.20;87.80;;;;;;5057217;28;20036;-77
2022/08/17 01:36:27;;;;;;;38.00;34.05;;;20.20;87.70;;;;;;5056794;28;20489;-77
2022/08/17 01:38:53;;;;;;;48.70;37.97;;;20.20;87.80;;;;;;5056925;28;20040;-78
2022/08/17 01:41:21;;;;;;;38.35;34.40;;;20.20;87.90;;;;;;5073664;28;20500;-78
2022/08/17 01:43:53;;;;;;;75.53;39.47;;;20.10;88.10;;;;;;5073275;28;20040;-78
2022/08/17 01:46:25;;;;;;;39.10;35.05;;;20.10;88.30;;;;;;5073342;28;20119;-77
2022/08/17 01:48:52;;;;;;;38.03;34.08;;;20.00;88.40;;;;;;5073082;28;20047;-77
2022/08/17 01:51:18;;;;;;;37.42;33.65;;;20.00;88.30;;;;;;5056098;28;20041;-78
2022/08/17 01:53:49;;;;;;;41.70;35.65;;;20.10;88.30;;;;;;5056498;28;20557;-78
2022/08/17 01:56:18;;;;;;;36.85;33.05;;;20.00;88.30;;;;;;5072623;28;20154;-77
2022/08/17 01:58:45;;;;;;;35.10;31.60;;;20.00;88.20;;;;;;5072467;28;20089;-77
2022/08/17 02:01:13;;;;;;;34.60;31.00;;;20.00;88.10;;;;;;5072603;28;20094;-77
2022/08/17 02:03:39;;;;;;;106.65;34.47;;;19.90;88.10;;;;;;5055856;28;20457;-78
2022/08/17 02:06:06;;;;;;;31.08;27.90;;;19.80;88.10;;;;;;5072321;28;20149;-77
2022/08/17 02:08:34;;;;;;;23.40;21.27;;;19.80;88.10;;;;;;5072235;28;20095;-77
2022/08/17 02:11:01;;;;;;;26.08;23.77;;;19.70;88.10;;;;;;5072352;28;20055;-76
2022/08/17 02:13:28;;;;;;;26.30;23.55;;;19.70;88.10;;;;;;5072545;28;20043;-78
2022/08/17 02:15:55;;;;;;;26.63;24.17;;;19.60;88.10;;;;;;5056161;28;20083;-77
2022/08/17 02:18:21;;;;;;;25.27;22.80;;;19.60;87.90;;;;;;5072709;28;20401;-77
2022/08/17 02:20:47;;;;;;;48.05;27.67;;;19.50;87.70;;;;;;5072431;28;20040;-77
2022/08/17 02:23:13;;;;;;;37.55;26.85;;;19.50;88.00;;;;;;5056096;28;20059;-78
2022/08/17 02:25:42;;;;;;;60.75;30.25;;;19.50;88.10;;;;;;5072779;28;20044;-76
2022/08/17 02:28:08;;;;;;;73.18;30.65;;;19.50;88.40;;;;;;5071998;28;20056;-77
2022/08/17 02:30:35;;;;;;;129.15;35.42;;;19.50;88.20;;;;;;5055650;28;20178;-78
2022/08/17 02:33:02;;;;;;;461.38;56.38;;;19.40;88.50;;;;;;5072571;28;20642;-76
2022/08/17 02:35:28;;;;;;;62.47;37.63;;;19.40;88.50;;;;;;5072355;28;20032;-77
2022/08/17 02:37:54;;;;;;;112.00;40.65;;;19.40;88.80;;;;;;5055555;28;20124;-77
2022/08/17 02:40:20;;;;;;;36.92;28.02;;;19.40;89.10;;;;;;5072464;28;20115;-77
2022/08/17 02:42:47;;;;;;;43.38;36.17;;;19.40;89.00;;;;;;5072019;28;20040;-77
2022/08/17 02:45:19;;;;;;;44.20;36.13;;;19.40;89.10;;;;;;5072538;28;20051;-77
2022/08/17 02:47:45;;;;;;;64.68;37.28;;;19.40;89.10;;;;;;5072378;28;20357;-78
2022/08/17 02:50:14;;;;;;;68.75;39.88;;;19.40;89.10;;;;;;5071977;28;20076;-78
2022/08/17 02:52:41;;;;;;;79.95;36.97;;;19.40;89.00;;;;;;5072267;28;20041;-77
2022/08/17 02:55:35;;;;;;;63.88;36.22;;;19.40;89.20;;;;;;5072271;28;20484;-76
2022/08/17 02:58:02;;;;;;;42.13;36.50;;;19.40;89.30;;;;;;5069461;28;20048;-78
2022/08/17 03:00:35;;;;;;;95.25;37.78;;;19.40;89.60;;;;;;5072142;28;20040;-77
2022/08/17 03:03:03;;;;;;;39.20;28.70;;;19.40;89.40;;;;;;5072282;28;20369;-77
2022/08/17 03:05:31;;;;;;;73.75;34.50;;;19.30;89.30;;;;;;5055296;28;20043;-78
2022/08/17 03:07:57;;;;;;;238.45;49.22;;;19.30;89.10;;;;;;5071782;28;20484;-76
2022/08/17 03:10:24;;;;;;;33.65;29.95;;;19.30;89.10;;;;;;5071852;28;20036;-77
2022/08/17 03:12:51;;;;;;;138.50;38.53;;;19.20;89.30;;;;;;5072337;28;20044;-75
2022/08/17 03:15:21;;;;;;;119.00;38.92;;;19.20;89.40;;;;;;5072022;28;20157;-77
2022/08/17 03:17:47;;;;;;;66.55;35.35;;;19.20;89.30;;;;;;5072150;28;20033;-78
2022/08/17 03:20:14;;;;;;;43.03;33.65;;;19.10;89.60;;;;;;5071945;28;20396;-77
2022/08/17 03:22:43;;;;;;;203.25;43.15;;;19.20;89.60;;;;;;5071954;28;20062;-78
2022/08/17 03:25:11;;;;;;;46.75;34.20;;;19.20;89.60;;;;;;5072156;28;20391;-77
2022/08/17 03:27:37;;;;;;;329.45;51.65;;;19.10;89.70;;;;;;5071385;28;20053;-77
2022/08/17 03:30:05;;;;;;;83.60;36.58;;;19.10;89.60;;;;;;5038548;28;20051;-76
2022/08/17 03:32:40;;;;;;;127.85;37.97;;;19.10;89.60;;;;;;5058752;28;20051;-76
2022/08/17 03:35:07;;;;;;;101.00;39.75;;;19.00;89.80;;;;;;5058923;28;20127;-77
2022/08/17 03:37:33;;;;;;;64.15;37.38;;;19.00;89.80;;;;;;5075409;28;20044;-76
2022/08/17 03:39:59;;;;;;;134.02;41.70;;;19.00;89.80;;;;;;5075198;28;20447;-77
2022/08/17 03:42:26;;;;;;;74.25;38.97;;;19.00;89.90;;;;;;5075186;28;20040;-77
2022/08/17 03:44:54;;;;;;;63.28;34.20;;;18.90;90.20;;;;;;5075343;28;20056;-76
2022/08/17 03:58:21;;;;;;;58.13;36.28;;;19.00;90.00;;;;;;5075404;28;20044;-77
2022/08/17 04:00:48;;;;;;;58.72;32.03;;;19.00;90.10;;;;;;5058614;28;20138;-77
2022/08/17 04:03:15;;;;;;;55.65;36.13;;;19.00;90.00;;;;;;5075257;28;20400;-77
2022/08/17 04:05:41;;;;;;;38.22;32.10;;;19.00;89.90;;;;;;5074986;28;20489;-77
2022/08/17 04:08:07;;;;;;;45.53;36.92;;;18.90;89.80;;;;;;5074766;28;20074;-78
2022/08/17 04:10:34;;;;;;;52.85;38.75;;;19.00;89.60;;;;;;5075126;28;20443;-78
2022/08/17 04:13:00;;;;;;;36.72;32.97;;;19.00;89.80;;;;;;5074576;28;20037;-78
2022/08/17 04:15:26;;;;;;;41.80;35.63;;;19.00;89.70;;;;;;5058183;28;20041;-77
2022/08/17 04:17:52;;;;;;;47.90;36.35;;;19.10;89.70;;;;;;5074294;28;20044;-77
2022/08/17 04:20:20;;;;;;;41.92;35.90;;;19.00;89.70;;;;;;5074553;28;20465;-77
2022/08/17 04:23:02;;;;;;;37.47;33.53;;;19.00;89.60;;;;;;5074280;28;20040;-79
2022/08/17 04:25:31;;;;;;;36.95;33.20;;;19.00;89.60;;;;;;5074673;28;20037;-78
2022/08/17 04:27:57;;;;;;;33.22;29.67;;;19.00;89.50;;;;;;5074126;28;20052;-77
2022/08/17 04:30:24;;;;;;;27.88;24.83;;;19.10;89.50;;;;;;5094809;28;20076;-78
2022/08/17 04:32:57;;;;;;;38.90;33.67;;;19.10;89.40;;;;;;5094038;28;20040;-75
2022/08/17 04:35:26;;;;;;;54.55;36.55;;;19.20;89.30;;;;;;5077390;28;20568;-78
2022/08/17 04:37:52;;;;;;;48.17;32.78;;;19.20;89.10;;;;;;5093954;28;20085;-76
2022/08/17 04:43:09;;;;;;;41.45;29.65;;;19.30;88.90;;;;;;5093180;28;20164;-77
2022/08/17 04:45:45;;;;;;;57.03;34.47;;;19.30;88.80;;;;;;5094001;28;20537;-77
2022/08/17 04:48:11;;;;;;;68.60;42.28;;;19.30;88.90;;;;;;5093821;28;20127;-77
2022/08/17 04:50:42;;;;;;;64.05;40.67;;;19.30;88.90;;;;;;5093542;28;20132;-76
2022/08/17 04:53:08;;;;;;;48.70;41.13;;;19.40;89.00;;;;;;5094012;28;20036;-77
2022/08/17 04:55:33;;;;;;;38.40;32.58;;;19.40;89.50;;;;;;5093672;28;20049;-77
2022/08/17 04:57:59;;;;;;;48.83;33.47;;;19.40;89.40;;;;;;5093569;28;20066;-77
2022/08/17 05:00:25;;;;;;;30.10;27.02;;;19.40;89.50;;;;;;5093398;28;20040;-78
2022/08/17 05:02:52;;;;;;;61.17;42.72;;;19.40;89.40;;;;;;5076874;28;20032;-75
2022/08/17 05:05:20;;;;;;;38.17;32.33;;;19.40;89.40;;;;;;5093432;28;20036;-78
2022/08/17 05:07:46;;;;;;;40.15;35.72;;;19.50;89.50;;;;;;5093671;28;20043;-77
2022/08/17 05:10:12;;;;;;;43.78;37.88;;;19.50;89.50;;;;;;5076384;28;20052;-77
2022/08/17 05:12:38;;;;;;;33.45;29.73;;;19.60;89.50;;;;;;5076382;28;20044;-77
2022/08/17 05:15:04;;;;;;;33.65;30.20;;;19.60;89.50;;;;;;5076355;28;20040;-77
2022/08/17 05:17:30;;;;;;;32.60;29.27;;;19.60;89.50;;;;;;5093488;28;20505;-77
2022/08/17 05:19:55;;;;;;;32.17;28.85;;;19.70;89.60;;;;;;5059852;28;20047;-76
2022/08/17 05:22:21;;;;;;;37.13;33.35;;;19.70;89.40;;;;;;5093534;28;20472;-77
2022/08/17 05:24:47;;;;;;;39.35;35.08;;;19.70;89.40;;;;;;5076616;28;20472;-77
2022/08/17 05:27:12;;;;;;;45.22;37.38;;;19.70;89.40;;;;;;5059790;28;20480;-77
2022/08/17 05:29:38;;;;;;;41.63;36.03;;;19.80;89.40;;;;;;5093433;28;20070;-78
2022/08/17 05:32:12;;;;;;;62.92;40.60;;;19.80;89.90;;;;;;5093195;28;20040;-77
2022/08/17 05:34:38;;;;;;;;;;;19.70;90.80;;;;;;5093674;28;20036;-77
2022/08/17 05:37:04;;;;;;;52.80;41.45;;;19.70;90.40;;;;;;5093247;28;19938;-76
2022/08/17 05:39:30;;;;;;;47.17;37.90;;;19.60;90.40;;;;;;5093580;28;20040;-78
2022/08/17 05:41:56;;;;;;;49.33;37.55;;;19.50;90.80;;;;;;5093336;28;20116;-77
2022/08/17 05:44:22;;;;;;;48.80;39.53;;;19.70;91.30;;;;;;5093364;28;20131;-77
2022/08/17 05:46:50;;;;;;;57.00;46.50;;;19.60;91.10;;;;;;5093293;28;20043;-77
2022/08/17 05:49:20;;;;;;;45.75;36.80;;;19.50;91.00;;;;;;5076135;28;20050;-76
2022/08/17 05:52:11;;;;;;;49.78;38.10;;;19.60;91.50;;;;;;5065347;28;20535;-76
2022/08/17 05:55:01;;;;;;;58.85;46.33;;;19.70;91.50;;;;;;5092108;28;20484;-78
2022/08/17 05:57:53;;;;;;;61.35;47.92;;;19.60;91.20;;;;;;5092895;28;20047;-76
2022/08/17 06:00:22;;;;;;;47.75;38.95;;;19.50;91.30;;;;;;5093260;28;20036;-78
2022/08/17 06:03:15;;;;;;;55.05;43.67;;;19.60;91.30;;;;;;5076105;28;20046;-77
2022/08/17 06:06:23;;;;;;;53.75;43.75;;;19.60;91.20;;;;;;5092101;28;20044;-77
2022/08/17 06:09:25;;;;;;;43.55;36.88;;;19.60;91.30;;;;;;5052273;28;20540;-75
2022/08/17 06:12:29;;;;;;;55.30;45.15;;;19.70;91.50;;;;;;5091895;28;20555;-77
2022/08/17 06:15:28;;;;;;;57.25;46.38;;;19.70;91.30;;;;;;5092102;28;20036;-76
2022/08/17 06:18:08;;;;;;;58.28;47.20;;;19.70;91.40;;;;;;5092023;28;20032;-77
2022/08/17 06:20:59;;;;;;;41.90;37.25;;;19.70;91.40;;;;;;5091964;28;20032;-77
2022/08/17 06:23:49;;;;;;;50.97;44.42;;;19.70;91.30;;;;;;5075256;28;20039;-78
2022/08/17 06:26:19;;;;;;;57.15;46.85;;;19.80;91.30;;;;;;5092233;28;20407;-79
2022/08/17 06:28:53;;;;;;;50.60;44.00;;;19.90;91.30;;;;;;5091772;28;20059;-78
2022/08/17 06:31:31;;;;;;;51.83;44.33;;;19.90;91.50;;;;;;5091915;28;20488;-77
2022/08/17 06:33:59;;;;;;;44.47;37.95;;;19.90;91.40;;;;;;5092154;28;20113;-76
2022/08/17 06:36:52;;;;;;;41.50;37.20;;;19.90;91.60;;;;;;5085500;28;20048;-77
2022/08/17 06:39:27;;;;;;;34.75;31.15;;;19.90;91.40;;;;;;5080271;28;20629;-79
2022/08/17 06:42:14;;;;;;;55.28;43.58;;;19.90;91.20;;;;;;5068975;28;20136;-79
2022/08/17 06:44:49;;;;;;;33.50;29.83;;;20.00;91.20;;;;;;5085812;28;20496;-78
2022/08/17 06:47:35;;;;;;;43.72;38.92;;;20.00;91.10;;;;;;5086202;28;20036;-79
2022/08/17 06:50:13;;;;;;;51.83;44.97;;;20.00;91.00;;;;;;5082701;28;20051;-77
2022/08/17 06:52:49;;;;;;;61.03;48.67;;;20.10;91.00;;;;;;5085685;28;20087;-81
2022/08/17 06:55:44;;;;;;;45.92;40.88;;;20.20;91.30;;;;;;5085708;28;20044;-79
2022/08/17 06:58:12;;;;;;;35.10;31.55;;;20.20;91.60;;;;;;5084691;28;20048;-79
2022/08/17 07:00:42;;;;;;;38.28;34.22;;;20.20;91.30;;;;;;5084052;28;20051;-79
2022/08/17 07:03:15;;;;;;;41.40;36.88;;;20.20;91.10;;;;;;5085820;28;20420;-79
2022/08/17 07:05:50;;;;;;;34.25;30.50;;;20.30;90.80;;;;;;5087093;28;20123;-80
2022/08/17 07:08:32;;;;;;;35.58;31.98;;;20.30;90.50;;;;;;5089469;28;20408;-78
2022/08/17 07:11:34;;;;;;;58.10;43.75;;;20.30;90.50;;;;;;5086537;28;20040;-79
2022/08/17 07:14:29;;;;;;;37.60;32.85;;;20.30;90.40;;;;;;5044933;28;20051;-80
2022/08/17 07:16:59;;;;;;;43.17;37.88;;;20.40;90.60;;;;;;5089329;28;20032;-79
2022/08/17 07:19:30;;;;;;;48.78;40.80;;;20.40;90.50;;;;;;5072871;28;20119;-79
2022/08/17 07:22:33;;;;;;;49.55;41.83;;;20.40;90.60;;;;;;5088929;28;20051;-79
2022/08/17 07:25:03;;;;;;;35.83;32.05;;;20.40;90.70;;;;;;5088398;28;20123;-77
2022/08/17 07:27:36;;;;;;;38.72;33.83;;;20.50;90.70;;;;;;5087995;28;20572;-78
2022/08/17 07:30:05;;;;;;;48.97;40.13;;;20.40;90.60;;;;;;5086630;28;20547;-79
2022/08/17 07:32:56;;;;;;;34.55;30.95;;;20.50;90.60;;;;;;5088553;28;20490;-79
2022/08/17 07:35:28;;;;;;;37.00;33.00;;;20.40;90.70;;;;;;5089171;28;20059;-79
2022/08/17 07:38:16;;;;;;;43.97;38.55;;;20.50;90.40;;;;;;5089855;28;20100;-79
2022/08/17 07:41:04;;;;;;;47.65;39.85;;;20.50;90.50;;;;;;5070889;28;20052;-79
2022/08/17 07:43:44;;;;;;;38.22;34.13;;;20.60;90.40;;;;;;5089007;28;20048;-78
2022/08/17 07:48:58;;;;;;;46.63;41.55;;;20.60;90.50;;;;;;5088564;28;20145;-77
2022/08/17 07:51:31;;;;;;;49.28;40.17;;;20.60;90.60;;;;;;5087353;28;20074;-79
2022/08/17 07:54:01;;;;;;;48.78;43.45;;;20.70;90.70;;;;;;5088676;28;20036;-80
2022/08/17 07:57:02;;;;;;;43.42;37.92;;;20.70;90.60;;;;;;5088985;28;20587;-81
2022/08/17 07:59:29;;;;;;;58.40;49.17;;;20.70;90.80;;;;;;5045160;28;20075;-82
2022/08/17 08:02:04;;;;;;;40.03;35.78;;;20.70;90.70;;;;;;5070920;28;20036;-80
2022/08/17 08:04:33;;;;;;;50.47;44.95;;;20.80;90.80;;;;;;5086416;28;20059;-80
2022/08/17 08:07:02;;;;;;;54.33;48.08;;;20.80;90.90;;;;;;5087691;28;20040;-80
2022/08/17 08:09:33;;;;;;;39.90;35.80;;;20.80;91.00;;;;;;5088273;28;20043;-78
2022/08/17 08:12:19;;;;;;;49.25;43.95;;;20.80;91.10;;;;;;5071066;28;20044;-79
2022/08/17 08:15:11;;;;;;;41.80;37.50;;;20.80;91.10;;;;;;5088795;28;20545;-79
2022/08/17 08:17:56;;;;;;;53.58;45.20;;;20.80;91.20;;;;;;5086465;28;20134;-79
2022/08/17 08:20:36;;;;;;;44.85;39.58;;;20.80;91.30;;;;;;5087111;28;20036;-78
2022/08/17 08:23:25;;;;;;;54.42;46.53;;;20.80;91.50;;;;;;5070303;28;20180;-80
2022/08/17 08:26:25;;;;;;;50.80;44.50;;;20.80;91.30;;;;;;5067394;28;20060;-80
2022/08/17 08:29:17;;;;;;;52.95;46.80;;;20.80;91.40;;;;;;5087970;28;20511;-80
2022/08/17 08:32:08;;;;;;;49.88;44.42;;;20.80;91.60;;;;;;5069694;28;20044;-81
2022/08/17 08:34:59;;;;;;;38.75;34.65;;;20.80;91.50;;;;;;5069809;28;20040;-81
2022/08/17 08:37:51;;;;;;;39.67;35.55;;;20.80;91.50;;;;;;5088803;28;20071;-80
2022/08/17 08:40:31;;;;;;;49.70;44.30;;;20.80;91.40;;;;;;5075931;28;20055;-80
2022/08/17 08:43:06;;;;;;;48.28;42.88;;;20.80;91.20;;;;;;5088399;28;20040;-79
2022/08/17 08:45:55;;;;;;;46.90;41.88;;;20.80;91.20;;;;;;5086704;28;20043;-81
2022/08/17 08:48:43;;;;;;;40.67;36.45;;;20.80;91.20;;;;;;5088235;28;20040;-81
2022/08/17 08:51:41;;;;;;;52.50;45.83;;;20.80;91.30;;;;;;5085575;28;20112;-79
2022/08/17 08:54:27;;;;;;;50.15;43.65;;;20.80;91.30;;;;;;5087862;28;20036;-80
2022/08/17 08:57:11;;;;;;;48.75;43.60;;;20.70;91.20;;;;;;5088286;28;20445;-82
2022/08/17 09:00:00;;;;;;;52.53;45.75;;;20.80;91.10;;;;;;5069921;28;20090;-81
2022/08/17 09:03:05;;;;;;;44.25;39.50;;;20.70;90.90;;;;;;5087590;28;20132;-79
2022/08/17 09:05:52;;;;;;;41.80;37.53;;;20.70;90.80;;;;;;5081677;28;20048;-80
2022/08/17 09:08:53;;;;;;;42.05;37.55;;;20.70;90.90;;;;;;5068776;28;20090;-80
2022/08/17 09:11:44;;;;;;;42.53;38.17;;;20.70;90.70;;;;;;5083092;28;20079;-80
2022/08/17 09:14:18;;;;;;;38.42;34.33;;;20.60;90.80;;;;;;5067951;28;20085;-77
2022/08/17 09:16:55;;;;;;;45.88;41.22;;;20.60;90.70;;;;;;5085800;28;20063;-78
2022/08/17 09:19:30;;;;;;;41.75;37.33;;;20.60;90.70;;;;;;5083490;28;20508;-78
2022/08/17 09:22:10;;;;;;;39.05;34.80;;;20.60;90.80;;;;;;5084975;28;20051;-79
2022/08/17 09:24:47;;;;;;;37.17;33.25;;;20.60;91.00;;;;;;5084902;28;20079;-80
2022/08/17 09:27:18;;;;;;;35.75;32.10;;;20.60;90.80;;;;;;5087184;28;20062;-79
2022/08/17 09:29:52;;;;;;;34.25;30.58;;;20.60;90.90;;;;;;5069003;28;20494;-79
2022/08/17 09:32:32;;;;;;;32.55;29.08;;;20.60;90.80;;;;;;5087543;28;20404;-80
2022/08/17 09:35:11;;;;;;;32.45;26.38;;;20.60;90.60;;;;;;5083985;28;20126;-81
2022/08/17 09:38:14;;;;;;;30.73;27.00;;;20.70;90.60;;;;;;5069690;28;20040;-79
2022/08/17 09:40:56;;;;;;;28.17;25.42;;;20.70;90.50;;;;;;5051278;28;20048;-79
2022/08/17 09:43:37;;;;;;;33.45;30.00;;;20.70;90.80;;;;;;5070025;28;20048;-78
2022/08/17 09:46:24;;;;;;;31.38;28.30;;;20.70;90.80;;;;;;5085424;28;20484;-79
2022/08/17 09:49:06;;;;;;;31.63;28.13;;;20.50;90.80;;;;;;5070182;28;20120;-79
2022/08/17 09:51:52;;;;;;;29.75;26.77;;;20.50;91.00;;;;;;5085916;28;20074;-79
2022/08/17 09:54:38;;;;;;;28.15;25.15;;;20.50;90.90;;;;;;5086357;28;20510;-79
2022/08/17 09:57:11;;;;;;;27.58;24.77;;;20.50;90.90;;;;;;5069935;28;20039;-79
2022/08/17 10:00:12;;;;;;;34.20;30.83;;;20.50;90.60;;;;;;5085525;28;20032;-78
2022/08/17 10:02:53;;;;;;;20.27;18.48;;;20.50;90.60;;;;;;5079195;28;20047;-79
2022/08/17 10:05:27;;;;;;;19.60;17.80;;;20.40;90.70;;;;;;5069878;28;20524;-79
2022/08/17 10:08:35;;;;;;;19.40;17.42;;;20.40;89.60;;;;;;5087025;28;20525;-78
2022/08/17 10:12:14;;;;;;;17.35;15.63;;;20.40;89.30;;;;;;5084153;28;20067;-77
2022/08/17 10:14:16;;;;;;;15.57;14.13;;;20.30;88.70;;;;;;5082957;28;20036;-78
2022/08/17 10:16:54;;;;;;;17.17;15.48;;;20.20;87.80;;;;;;5085962;28;20210;-79
2022/08/17 10:19:32;;;;;;;16.90;15.05;;;20.20;87.80;;;;;;5087128;28;20438;-78
2022/08/17 10:27:47;;;;;;;19.58;17.30;;;20.10;87.80;;;;;;5084680;28;20055;-78
2022/08/17 10:30:21;;;;;;;18.97;17.07;;;20.10;88.10;;;;;;5067536;28;20056;-76
2022/08/17 10:33:03;;;;;;;19.60;17.52;;;20.10;88.60;;;;;;5085674;28;20136;-81
2022/08/17 10:35:53;;;;;;;21.08;19.00;;;20.20;89.10;;;;;;5071365;28;20032;-82
2022/08/17 10:38:44;;;;;;;19.55;17.70;;;20.20;89.30;;;;;;5091893;28;20484;-79
2022/08/17 10:41:39;;;;;;;21.63;19.48;;;20.30;89.40;;;;;;5074472;28;20122;-77
2022/08/17 10:44:08;;;;;;;19.92;17.88;;;20.50;89.40;;;;;;5075302;28;20063;-76
2022/08/17 10:47:01;;;;;;;19.27;17.42;;;20.70;89.00;;;;;;5092108;28;20063;-77
2022/08/17 10:49:32;;;;;;;17.52;15.85;;;20.90;88.80;;;;;;5092081;28;20135;-78
2022/08/17 10:52:25;;;;;;;16.20;14.60;;;21.00;88.70;;;;;;5075006;28;20477;-77
2022/08/17 10:54:50;;;;;;;18.95;17.17;;;21.10;87.90;;;;;;5061255;28;20177;-77
2022/08/17 10:57:28;;;;;;;14.60;12.73;;;21.10;87.00;;;;;;5091732;28;20119;-77
2022/08/17 10:59:59;;;;;;;14.02;12.52;;;21.00;85.90;;;;;;5091711;28;20043;-76
2022/08/17 11:02:30;;;;;;;14.43;13.13;;;21.00;85.60;;;;;;5091813;28;20044;-75
2022/08/17 11:05:24;;;;;;;14.52;13.20;;;21.00;85.30;;;;;;5091805;28;20050;-74
2022/08/17 11:08:43;;;;;;;12.43;11.20;;;21.00;85.60;;;;;;5091813;28;20063;-73
2022/08/17 11:11:19;;;;;;;12.93;11.63;;;21.00;85.40;;;;;;5013812;28;20304;-80
2022/08/17 11:14:05;;;;;;;13.05;11.75;;;20.90;85.50;;;;;;5080773;28;20051;-78
2022/08/17 11:16:50;;;;;;;15.57;14.15;;;21.00;85.00;;;;;;5091505;28;20044;-73
2022/08/17 11:19:42;;;;;;;16.70;14.95;;;21.00;85.30;;;;;;5091575;28;20036;-78
2022/08/17 11:22:29;;;;;;;17.75;15.90;;;21.00;85.70;;;;;;5091533;28;20484;-80
2022/08/17 11:25:07;;;;;;;17.38;15.48;;;21.00;86.20;;;;;;5091343;28;20036;-78
2022/08/17 11:27:35;;;;;;;19.33;17.35;;;20.90;86.20;;;;;;5091251;28;20064;-74
2022/08/17 11:30:35;;;;;;;17.80;16.13;;;21.00;86.30;;;;;;5091628;28;20394;-78
2022/08/17 11:33:35;;;;;;;20.27;18.20;;;21.00;86.50;;;;;;5091131;28;20500;-77
2022/08/17 11:36:30;;;;;;;21.60;19.50;;;21.10;87.10;;;;;;5091101;28;20040;-78
2022/08/17 11:39:03;;;;;;;20.27;18.13;;;21.30;87.10;;;;;;5074760;28;20457;-77
2022/08/17 11:41:31;;;;;;;21.33;19.13;;;21.30;88.00;;;;;;5091373;28;20071;-77
2022/08/17 11:44:36;;;;;;;20.90;18.92;;;21.40;87.60;;;;;;5091183;28;20492;-76
2022/08/17 11:53:52;;;;;;;23.08;19.63;;;21.40;87.20;;;;;;5036790;28;20568;-76
2022/08/17 11:56:40;;;;;;;21.63;19.45;;;21.40;86.70;;;;;;5020390;28;20131;-76
2022/08/17 11:59:42;;;;;;;18.70;16.73;;;21.50;86.70;;;;;;5071104;28;20088;-75
2022/08/17 12:02:37;;;;;;;19.90;18.10;;;21.50;86.40;;;;;;5094719;28;20074;-77
2022/08/17 12:05:22;;;;;;;21.65;19.27;;;21.50;86.00;;;;;;5078037;28;20054;-77
2022/08/17 12:08:09;;;;;;;20.45;18.33;;;21.60;85.50;;;;;;5094664;28;20047;-75
2022/08/17 12:10:49;;;;;;;22.15;19.90;;;21.70;85.70;;;;;;5094478;28;20515;-76
2022/08/17 12:13:16;;;;;;;22.58;20.27;;;21.70;85.70;;;;;;5094814;28;20369;-79
2022/08/17 12:15:48;;;;;;;22.67;20.40;;;21.70;85.70;;;;;;5077599;28;20069;-80
2022/08/17 12:18:34;;;;;;;20.40;18.40;;;21.80;85.70;;;;;;5094469;28;20039;-79
2022/08/17 12:21:25;;;;;;;16.98;15.43;;;21.80;85.00;;;;;;5094690;28;20089;-79
2022/08/17 12:24:05;;;;;;;16.77;15.00;;;21.90;84.50;;;;;;5094353;28;20048;-78
2022/08/17 12:26:34;;;;;;;17.42;15.57;;;21.80;84.30;;;;;;5094358;28;20044;-77
2022/08/17 12:29:03;;;;;;;17.42;15.73;;;21.90;84.40;;;;;;5094081;28;20117;-75
2022/08/17 12:31:46;;;;;;;16.50;14.77;;;21.90;84.00;;;;;;5094174;28;20043;-76
2022/08/17 12:34:19;;;;;;;16.27;14.55;;;22.00;83.50;;;;;;5094115;28;20526;-75
2022/08/17 12:36:49;;;;;;;18.00;16.23;;;22.00;83.50;;;;;;5094392;28;20040;-76
2022/08/17 12:39:19;;;;;;;17.08;15.38;;;22.00;83.70;;;;;;5094282;28;20044;-76
2022/08/17 12:41:47;;;;;;;15.98;14.25;;;22.10;83.30;;;;;;5078830;28;20439;-76
2022/08/17 12:44:32;;;;;;;16.92;15.27;;;22.10;83.00;;;;;;5073967;28;20040;-75
2022/08/17 12:47:03;;;;;;;16.52;14.93;;;22.20;82.80;;;;;;5073674;28;20045;-75
2022/08/17 12:49:34;;;;;;;17.55;15.77;;;22.30;82.70;;;;;;5073910;28;20045;-76
2022/08/17 12:52:15;;;;;;;16.40;14.80;;;22.40;83.10;;;;;;5073551;28;20488;-76
2022/08/17 12:54:52;;;;;;;14.63;13.13;;;22.50;82.10;;;;;;5073735;28;20480;-75
2022/08/17 12:57:22;;;;;;;16.65;15.07;;;22.50;81.90;;;;;;5073514;28;20048;-76
2022/08/17 12:59:53;;;;;;;17.70;15.82;;;22.50;82.00;;;;;;5073438;28;20036;-75
2022/08/17 13:02:36;;;;;;;17.92;16.08;;;22.50;82.00;;;;;;5056814;28;20047;-76
2022/08/17 13:05:04;;;;;;;16.43;14.63;;;22.50;82.00;;;;;;5056710;28;20044;-77
2022/08/17 13:07:41;;;;;;;18.00;16.10;;;22.50;82.40;;;;;;5073286;28;20082;-76
2022/08/17 13:10:12;;;;;;;13.93;12.60;;;22.60;82.60;;;;;;5056892;28;20447;-76
2022/08/17 13:12:38;;;;;;;15.18;13.63;;;22.60;81.90;;;;;;5071997;28;20048;-76
2022/08/17 13:15:04;;;;;;;14.05;12.70;;;22.50;81.60;;;;;;5093165;28;20071;-76
2022/08/17 13:17:35;;;;;;;15.77;13.35;;;22.50;81.40;;;;;;5093317;28;20075;-76
2022/08/17 13:20:03;;;;;;;15.25;13.75;;;22.50;80.30;;;;;;5076349;28;20036;-76
2022/08/17 13:22:31;;;;;;;15.88;14.35;;;22.40;80.40;;;;;;5093170;28;20055;-75
2022/08/17 13:25:02;;;;;;;15.93;14.00;;;22.40;81.20;;;;;;5093306;28;20039;-75
2022/08/17 13:27:30;;;;;;;17.58;15.93;;;22.40;81.30;;;;;;5093146;28;20060;-76
2022/08/17 13:29:59;;;;;;;18.50;16.65;;;22.40;81.50;;;;;;5093329;28;20127;-76
2022/08/17 13:32:38;;;;;;;15.32;13.85;;;22.40;81.80;;;;;;5092952;28;20036;-76
2022/08/17 13:35:35;;;;;;;18.60;15.45;;;22.40;82.00;;;;;;5092919;28;20483;-77
2022/08/17 13:38:13;;;;;;;15.48;13.88;;;22.40;81.70;;;;;;5076736;28;20203;-74